createdAt,value
2022-10-13T00:01:33.893Z,101661.56
2022-10-13T00:03:37.141Z,101662.63
2022-10-13T00:05:41.273Z,101656.69
2022-10-13T00:07:44.394Z,101657.59
2022-10-13T00:09:45.865Z,101653.63
2022-10-13T00:11:47.180Z,101648.69
2022-10-13T00:13:49.979Z,101651.47
2022-10-13T00:15:51.551Z,101647.94
2022-10-13T00:17:53.032Z,101651.03
2022-10-13T00:19:55.662Z,101642.06
2022-10-13T00:21:57.144Z,101643.91
2022-10-13T00:23:58.463Z,101640.41
2022-10-13T00:26:03.367Z,101635.03
2022-10-13T00:28:04.799Z,101635.72
2022-10-13T00:30:06.690Z,101639.06
2022-10-13T00:32:08.161Z,101640.38
2022-10-13T00:34:09.658Z,101639.41
2022-10-13T00:36:12.773Z,101642.59
2022-10-13T00:38:15.042Z,101631.38
2022-10-13T00:40:16.540Z,101633.69
2022-10-13T00:42:18.134Z,101640.00
2022-10-13T00:45:08.815Z,101642.34
2022-10-13T00:47:10.459Z,101633.06
2022-10-13T00:49:13.982Z,101626.44
2022-10-13T00:51:20.287Z,101636.25
2022-10-13T00:53:24.130Z,101633.97
2022-10-13T00:55:29.395Z,101630.50
2022-10-13T00:57:31.358Z,101631.38
2022-10-13T00:59:32.862Z,101638.16
2022-10-13T01:01:34.832Z,101637.38
2022-10-13T01:03:37.131Z,101625.13
2022-10-13T01:05:40.389Z,101626.94
2022-10-13T01:07:43.968Z,101637.56
2022-10-13T01:09:45.479Z,101630.56
2022-10-13T01:11:53.065Z,101628.06
2022-10-13T01:14:01.962Z,101631.72
2022-10-13T01:16:13.160Z,101622.50
2022-10-13T01:18:22.226Z,101620.06
2022-10-13T01:21:01.694Z,101624.69
2022-10-13T01:23:22.160Z,101624.94
2022-10-13T01:25:42.997Z,101620.81
2022-10-13T01:28:00.117Z,101615.91
2022-10-13T01:30:13.070Z,101618.59
2022-10-13T01:32:21.127Z,101622.22
2022-10-13T01:34:31.710Z,101617.16
2022-10-13T01:36:37.951Z,101605.72
2022-10-13T01:38:46.361Z,101609.13
2022-10-13T01:40:51.996Z,101608.47
2022-10-13T01:42:58.435Z,101608.28
2022-10-13T01:45:02.252Z,101602.25
2022-10-13T01:47:07.760Z,101601.44
2022-10-13T01:49:12.404Z,101599.91
2022-10-13T01:51:18.187Z,101602.63
2022-10-13T01:53:20.893Z,101594.72
2022-10-13T01:55:22.568Z,101599.34
2022-10-13T01:57:30.596Z,101588.78
2022-10-13T01:59:34.142Z,101587.13
2022-10-13T02:01:51.334Z,101588.97
2022-10-13T02:04:03.380Z,101582.69
2022-10-13T02:06:16.291Z,101586.22
2022-10-13T02:08:25.127Z,101580.69
2022-10-13T02:10:31.389Z,101579.25
2022-10-13T02:12:38.149Z,101577.91
2022-10-13T02:14:42.380Z,101576.59
2022-10-13T02:16:46.000Z,101573.41
2022-10-13T02:18:47.933Z,101574.38
2022-10-13T02:20:51.022Z,101576.06
2022-10-13T02:22:58.593Z,101577.91
2022-10-13T02:25:00.120Z,101573.50
2022-10-13T02:27:01.454Z,101572.41
2022-10-13T02:29:09.156Z,101567.00
2022-10-13T02:31:10.695Z,101565.38
2022-10-13T02:33:12.420Z,101558.97
2022-10-13T02:35:13.993Z,101562.81
2022-10-13T02:37:17.138Z,101556.94
2022-10-13T02:39:18.590Z,101565.16
2022-10-13T02:41:20.035Z,101559.59
2022-10-13T02:43:21.539Z,101553.66
2022-10-13T02:45:23.029Z,101547.16
2022-10-13T02:47:24.576Z,101552.91
2022-10-13T02:49:25.938Z,101555.59
2022-10-13T02:51:27.428Z,101547.78
2022-10-13T02:53:29.827Z,101548.59
2022-10-13T02:55:32.737Z,101553.22
2022-10-13T02:57:34.390Z,101548.56
2022-10-13T02:59:35.848Z,101546.88
2022-10-13T03:01:37.398Z,101543.19
2022-10-13T03:03:38.868Z,101539.69
2022-10-13T03:05:40.348Z,101532.53
2022-10-13T03:07:42.124Z,101512.00
2022-10-13T03:09:43.575Z,101541.81
2022-10-13T03:11:46.375Z,101531.56
2022-10-13T03:13:47.849Z,101529.97
2022-10-13T03:15:49.462Z,101523.75
2022-10-13T03:17:51.036Z,101524.97
2022-10-13T03:19:52.564Z,101528.28
2022-10-13T03:21:53.897Z,101533.84
2022-10-13T03:23:55.373Z,101532.22
2022-10-13T03:25:56.743Z,101534.00
2022-10-13T03:27:59.697Z,101522.38
2022-10-13T03:30:01.181Z,101524.31
2022-10-13T03:32:02.514Z,101523.06
2022-10-13T03:34:03.956Z,101523.31
2022-10-13T03:36:06.378Z,101518.97
2022-10-13T03:38:08.239Z,101522.59
2022-10-13T03:40:10.916Z,101527.13
2022-10-13T03:42:12.350Z,101528.09
2022-10-13T03:44:15.221Z,101530.78
2022-10-13T03:46:17.824Z,101513.06
2022-10-13T03:48:19.375Z,101515.72
2022-10-13T03:50:20.902Z,101517.59
2022-10-13T03:52:22.960Z,101511.00
2022-10-13T03:54:24.425Z,101508.38
2022-10-13T03:56:26.648Z,101512.47
2022-10-13T03:58:28.490Z,101513.34
2022-10-13T04:00:31.272Z,101512.47
2022-10-13T04:02:32.740Z,101508.34
2022-10-13T04:04:34.048Z,101499.81
2022-10-13T04:06:35.573Z,101502.13
2022-10-13T04:08:37.103Z,101501.88
2022-10-13T04:10:38.977Z,101506.16
2022-10-13T04:12:40.428Z,101509.88
2022-10-13T04:14:41.710Z,101501.78
2022-10-13T04:16:44.530Z,101502.47
2022-10-13T04:18:50.091Z,101506.66
2022-10-13T04:20:51.568Z,101504.47
2022-10-13T04:22:52.876Z,101503.09
2022-10-13T04:24:54.346Z,101497.44
2022-10-13T04:26:55.662Z,101503.19
2022-10-13T04:28:57.136Z,101499.63
2022-10-13T04:30:58.594Z,101498.41
2022-10-13T04:33:01.500Z,101503.75
2022-10-13T04:35:03.503Z,101497.44
2022-10-13T04:37:04.985Z,101497.25
2022-10-13T04:39:06.288Z,101498.03
2022-10-13T04:41:08.761Z,101501.66
2022-10-13T04:43:10.323Z,101500.72
2022-10-13T04:45:11.677Z,101501.69
2022-10-13T04:47:13.184Z,101490.13
2022-10-13T04:49:15.834Z,101482.25
2022-10-13T04:51:19.314Z,101482.81
2022-10-13T04:53:20.749Z,101481.09
2022-10-13T04:55:22.203Z,101485.44
2022-10-13T04:57:23.659Z,101489.06
2022-10-13T04:59:25.290Z,101489.75
2022-10-13T05:01:27.015Z,101492.44
2022-10-13T05:03:29.057Z,101485.41
2022-10-13T05:05:34.874Z,101490.38
2022-10-13T05:07:36.325Z,101487.91
2022-10-13T05:09:38.036Z,101480.19
2022-10-13T05:11:39.502Z,101483.47
2022-10-13T05:13:40.800Z,101475.38
2022-10-13T05:15:42.298Z,101475.47
2022-10-13T05:17:43.587Z,101478.47
2022-10-13T05:19:45.052Z,101474.22
2022-10-13T05:21:47.939Z,101472.09
2022-10-13T05:23:49.806Z,101473.75
2022-10-13T05:25:51.248Z,101475.38
2022-10-13T05:27:53.009Z,101477.22
2022-10-13T05:29:54.475Z,101471.00
2022-10-13T05:31:55.987Z,101468.25
2022-10-13T05:33:57.319Z,101471.75
2022-10-13T05:36:03.779Z,101466.41
2022-10-13T05:38:06.608Z,101474.38
2022-10-13T05:40:09.205Z,101473.34
2022-10-13T05:42:10.815Z,101471.63
2022-10-13T05:44:12.380Z,101469.53
2022-10-13T05:46:14.031Z,101464.53
2022-10-13T05:48:15.531Z,101467.81
2022-10-13T05:50:17.037Z,101464.97
2022-10-13T05:52:18.983Z,101465.53
2022-10-13T05:54:25.328Z,101454.53
2022-10-13T05:56:33.149Z,101462.34
2022-10-13T05:58:39.222Z,101461.97
2022-10-13T06:00:42.999Z,101464.41
2022-10-13T06:02:49.672Z,101460.44
2022-10-13T06:04:54.962Z,101469.38
2022-10-13T06:06:56.567Z,101460.03
2022-10-13T06:08:58.445Z,101464.72
2022-10-13T06:11:02.787Z,101470.03
2022-10-13T06:13:04.205Z,101466.00
2022-10-13T06:15:06.754Z,101472.00
2022-10-13T06:17:08.475Z,101467.47
2022-10-13T06:19:09.923Z,101456.66
2022-10-13T06:21:11.387Z,101454.84
2022-10-13T06:23:12.839Z,101466.91
2022-10-13T06:25:14.513Z,101463.81
2022-10-13T06:27:17.312Z,101454.78
2022-10-13T06:29:18.809Z,101455.66
2022-10-13T06:31:21.501Z,101461.88
2022-10-13T06:33:23.034Z,101467.47
2022-10-13T06:35:24.500Z,101464.09
2022-10-13T06:37:27.508Z,101472.84
2022-10-13T06:39:29.150Z,101471.78
2022-10-13T06:41:30.672Z,101470.47
2022-10-13T06:43:39.841Z,101472.88
2022-10-13T06:45:42.004Z,101471.59
2022-10-13T06:47:43.314Z,101466.78
2022-10-13T06:49:44.765Z,101470.25
2022-10-13T06:51:46.032Z,101467.28
2022-10-13T06:53:47.578Z,101469.66
2022-10-13T06:55:52.302Z,101462.50
2022-10-13T06:57:53.979Z,101465.84
2022-10-13T06:59:56.804Z,101463.66
2022-10-13T07:01:58.255Z,101462.75
2022-10-13T07:03:59.561Z,101457.22
2022-10-13T07:06:01.254Z,101456.97
2022-10-13T07:08:02.722Z,101460.78
2022-10-13T07:10:04.252Z,101458.13
2022-10-13T07:12:06.247Z,101453.50
2022-10-13T07:14:07.690Z,101453.50
2022-10-13T07:16:11.023Z,101454.28
2022-10-13T07:18:12.487Z,101450.72
2022-10-13T07:20:13.821Z,101452.22
2022-10-13T07:22:15.376Z,101440.44
2022-10-13T07:24:16.713Z,101443.94
2022-10-13T07:26:18.209Z,101423.34
2022-10-13T07:28:19.579Z,101440.00
2022-10-13T07:30:21.786Z,101441.75
2022-10-13T07:32:24.672Z,101449.03
2022-10-13T07:34:26.162Z,101441.50
2022-10-13T07:36:28.016Z,101437.28
2022-10-13T07:38:30.137Z,101436.84
2022-10-13T07:40:31.698Z,101443.66
2022-10-13T07:42:33.492Z,101438.41
2022-10-13T07:44:34.961Z,101433.94
2022-10-13T07:46:36.253Z,101424.91
2022-10-13T07:48:39.357Z,101426.69
2022-10-13T07:50:40.772Z,101430.41
2022-10-13T07:52:42.062Z,101432.19
2022-10-13T07:54:44.182Z,101429.06
2022-10-13T07:56:45.855Z,101417.53
2022-10-13T07:58:48.025Z,101431.28
2022-10-13T08:00:56.051Z,101415.13
2022-10-13T08:02:57.521Z,101426.44
2022-10-13T08:05:00.196Z,101424.72
2022-10-13T08:07:02.110Z,101425.72
2022-10-13T08:09:04.320Z,101412.25
2022-10-13T08:11:07.532Z,101420.63
2022-10-13T08:13:10.432Z,101409.63
2022-10-13T08:15:12.064Z,101415.69
2022-10-13T08:17:19.988Z,101412.63
2022-10-13T08:19:21.611Z,101409.41
2022-10-13T08:21:57.699Z,101412.78
2022-10-13T08:23:46.744Z,101409.66
2022-10-13T08:25:48.277Z,101408.13
2022-10-13T08:27:51.358Z,101408.94
2022-10-13T08:29:53.975Z,101401.47
2022-10-13T08:31:55.603Z,101399.63
2022-10-13T08:33:57.097Z,101397.09
2022-10-13T08:35:58.699Z,101396.25
2022-10-13T08:38:01.548Z,101388.69
2022-10-13T08:40:03.404Z,101388.59
2022-10-13T08:42:14.725Z,101381.69
2022-10-13T08:45:05.887Z,101383.66
2022-10-13T08:46:50.705Z,101388.31
2022-10-13T08:48:52.686Z,101389.31
2022-10-13T08:50:59.442Z,101386.31
2022-10-13T08:53:07.307Z,101388.63
2022-10-13T08:55:13.518Z,101380.59
2022-10-13T08:57:15.159Z,101391.19
2022-10-13T08:59:18.041Z,101385.31
2022-10-13T09:01:23.054Z,101397.38
2022-10-13T09:03:26.826Z,101385.31
2022-10-13T09:05:41.154Z,101380.66
2022-10-13T09:07:46.181Z,101370.78
2022-10-13T09:09:51.511Z,101371.13
2022-10-13T09:11:52.988Z,101370.75
2022-10-13T09:13:55.954Z,101368.28
2022-10-13T09:15:58.267Z,101369.66
2022-10-13T09:18:10.050Z,101360.59
2022-10-13T09:20:19.684Z,101370.56
2022-10-13T09:22:24.107Z,101364.72
2022-10-13T09:24:27.176Z,101371.75
2022-10-13T09:26:30.057Z,101371.19
2022-10-13T09:28:32.987Z,101372.22
2022-10-13T09:30:36.421Z,101373.47
2022-10-13T09:32:37.911Z,101367.31
2022-10-13T09:34:39.528Z,101368.84
2022-10-13T09:36:55.855Z,101374.59
2022-10-13T09:39:12.653Z,101369.44
2022-10-13T09:41:19.438Z,101364.66
2022-10-13T09:43:28.951Z,101366.69
2022-10-13T09:45:30.667Z,101375.38
2022-10-13T09:47:32.242Z,101369.47
2022-10-13T09:49:37.090Z,101367.59
2022-10-13T09:51:41.453Z,101372.00
2022-10-13T09:53:47.274Z,101371.59
2022-10-13T09:55:48.799Z,101371.31
2022-10-13T09:57:53.375Z,101368.84
2022-10-13T10:00:04.253Z,101377.75
2022-10-13T10:02:21.239Z,101376.69
2022-10-13T10:04:31.858Z,101370.94
2022-10-13T10:06:34.630Z,101369.69
2022-10-13T10:09:01.698Z,101382.59
2022-10-13T10:11:05.729Z,101376.38
2022-10-13T10:13:10.795Z,101371.94
2022-10-13T10:15:23.684Z,101373.06
2022-10-13T10:17:32.154Z,101366.44
2022-10-13T10:19:47.691Z,101363.03
2022-10-13T10:21:53.709Z,101364.78
2022-10-13T10:23:59.804Z,101359.50
2022-10-13T10:26:05.387Z,101357.88
2022-10-13T10:28:27.454Z,101352.06
2022-10-13T10:30:35.220Z,101353.84
2022-10-13T10:32:43.344Z,101350.13
2022-10-13T10:34:50.517Z,101329.78
2022-10-13T10:37:04.279Z,101346.28
2022-10-13T10:39:19.028Z,101340.56
2022-10-13T10:41:35.512Z,101343.28
2022-10-13T10:43:44.810Z,101343.91
2022-10-13T10:45:48.029Z,101332.66
2022-10-13T10:47:54.229Z,101329.44
2022-10-13T10:50:01.952Z,101323.34
2022-10-13T10:52:08.218Z,101323.22
2022-10-13T10:54:23.028Z,101316.56
2022-10-13T10:56:31.662Z,101315.47
2022-10-13T10:58:41.311Z,101314.88
2022-10-13T11:00:53.829Z,101313.31
2022-10-13T11:03:02.429Z,101301.34
2022-10-13T11:05:06.318Z,101304.38
2022-10-13T11:07:12.042Z,101301.16
2022-10-13T11:09:13.572Z,101291.97
2022-10-13T11:11:37.871Z,101300.56
2022-10-13T11:13:51.641Z,101288.19
2022-10-13T11:15:54.561Z,101291.44
2022-10-13T11:17:56.119Z,101293.06
2022-10-13T11:19:58.469Z,101296.78
2022-10-13T11:22:22.928Z,101293.25
2022-10-13T11:24:49.644Z,101289.16
2022-10-13T11:26:51.181Z,101282.78
2022-10-13T11:28:52.828Z,101285.25
2022-10-13T11:30:57.303Z,101282.47
2022-10-13T11:32:58.862Z,101273.00
2022-10-13T11:35:13.970Z,101279.88
2022-10-13T11:37:16.975Z,101279.66
2022-10-13T11:39:58.604Z,101267.63
2022-10-13T11:42:10.222Z,101271.88
2022-10-13T11:44:21.643Z,101262.84
2022-10-13T11:46:26.986Z,101262.97
2022-10-13T11:48:47.991Z,101262.97
2022-10-13T11:50:58.759Z,101250.63
2022-10-13T11:53:10.368Z,101242.44
2022-10-13T11:55:17.412Z,101241.78
2022-10-13T11:57:21.092Z,101233.06
2022-10-13T11:59:25.968Z,101233.22
2022-10-13T12:01:28.783Z,101229.50
2022-10-13T12:03:32.174Z,101232.72
2022-10-13T12:05:33.640Z,101231.25
2022-10-13T12:07:39.357Z,101224.81
2022-10-13T12:09:49.736Z,101229.72
2022-10-13T12:11:57.422Z,101234.09
2022-10-13T12:14:00.689Z,101222.34
2022-10-13T12:16:04.180Z,101223.53
2022-10-13T12:18:21.616Z,101220.03
2022-10-13T12:20:25.627Z,101219.75
2022-10-13T12:22:28.183Z,101218.44
2022-10-13T12:24:30.444Z,101223.72
2022-10-13T12:26:32.000Z,101221.47
2022-10-13T12:28:48.519Z,101220.56
2022-10-13T12:30:52.456Z,101223.72
2022-10-13T12:32:55.718Z,101220.59
2022-10-13T12:35:10.958Z,101222.69
2022-10-13T12:37:18.471Z,101224.25
2022-10-13T12:39:20.553Z,101215.63
2022-10-13T12:41:26.139Z,101219.84
2022-10-13T12:43:27.649Z,101231.28
2022-10-13T12:45:32.860Z,101231.56
2022-10-13T12:47:48.090Z,101228.41
2022-10-13T12:49:49.595Z,101221.66
2022-10-13T12:51:56.147Z,101225.84
2022-10-13T12:53:57.750Z,101235.75
2022-10-13T12:56:01.786Z,101226.06
2022-10-13T12:58:03.421Z,101225.66
2022-10-13T13:00:05.780Z,101225.28
2022-10-13T13:02:21.206Z,101230.66
2022-10-13T13:04:31.303Z,101222.69
2022-10-13T13:06:35.990Z,101226.50
2022-10-13T13:08:39.651Z,101225.53
2022-10-13T13:10:53.929Z,101224.34
2022-10-13T13:12:55.714Z,101218.84
2022-10-13T13:14:57.246Z,101218.56
2022-10-13T13:17:03.177Z,101231.78
2022-10-13T13:19:04.670Z,101221.78
2022-10-13T13:21:06.904Z,101227.16
2022-10-13T13:23:08.384Z,101221.22
2022-10-13T13:25:11.224Z,101223.72
2022-10-13T13:27:23.093Z,101215.84
2022-10-13T13:29:26.223Z,101220.59
2022-10-13T13:31:27.833Z,101220.28
2022-10-13T13:33:29.311Z,101220.72
2022-10-13T13:35:30.997Z,101213.84
2022-10-13T13:37:37.457Z,101206.09
2022-10-13T13:39:38.971Z,101203.09
2022-10-13T13:41:42.028Z,101200.06
2022-10-13T13:43:43.576Z,101199.78
2022-10-13T13:45:45.104Z,101199.03
2022-10-13T13:47:46.973Z,101206.34
2022-10-13T13:49:50.018Z,101201.38
2022-10-13T13:51:51.472Z,101204.81
2022-10-13T13:53:52.914Z,101200.25
2022-10-13T13:55:54.425Z,101197.56
2022-10-13T13:57:57.952Z,101192.78
2022-10-13T13:59:59.451Z,101199.44
2022-10-13T14:02:01.483Z,101200.69
2022-10-13T14:04:02.939Z,101193.06
2022-10-13T14:06:05.487Z,101184.69
2022-10-13T14:08:07.522Z,101183.44
2022-10-13T14:10:10.374Z,101173.47
2022-10-13T14:12:12.200Z,101180.56
2022-10-13T14:14:15.425Z,101177.16
2022-10-13T14:16:17.703Z,101181.66
2022-10-13T14:18:19.355Z,101174.94
2022-10-13T14:20:21.969Z,101167.34
2022-10-13T14:22:23.659Z,101163.38
2022-10-13T14:24:25.325Z,101171.50
2022-10-13T14:26:26.954Z,101173.09
2022-10-13T14:28:28.460Z,101165.94
2022-10-13T14:30:31.353Z,101165.78
2022-10-13T14:32:33.245Z,101160.88
2022-10-13T14:34:34.717Z,101168.44
2022-10-13T14:36:36.216Z,101163.28
2022-10-13T14:38:37.711Z,101172.31
2022-10-13T14:40:40.809Z,101179.06
2022-10-13T14:42:42.246Z,101173.81
2022-10-13T14:44:43.805Z,101168.88
2022-10-13T14:46:46.619Z,101169.09
2022-10-13T14:48:48.592Z,101167.16
2022-10-13T14:50:50.089Z,101168.88
2022-10-13T14:52:51.575Z,101163.78
2022-10-13T14:54:53.150Z,101166.25
2022-10-13T14:56:54.658Z,101161.38
2022-10-13T14:58:57.588Z,101155.44
2022-10-13T15:00:59.066Z,101155.88
2022-10-13T15:03:01.989Z,101157.53
2022-10-13T15:05:04.047Z,101149.56
2022-10-13T15:07:05.639Z,101144.53
2022-10-13T15:11:09.772Z,101161.06
2022-10-13T15:13:11.544Z,101152.41
2022-10-13T15:15:13.260Z,101151.31
2022-10-13T15:17:14.849Z,101155.50
2022-10-13T15:19:18.774Z,101160.69
2022-10-13T15:21:20.854Z,101161.31
2022-10-13T15:23:22.310Z,101164.66
2022-10-13T15:25:23.794Z,101166.59
2022-10-13T15:27:25.345Z,101159.59
2022-10-13T15:29:26.848Z,101157.34
2022-10-13T15:31:28.735Z,101164.84
2022-10-13T15:33:30.385Z,101157.97
2022-10-13T15:35:33.266Z,101163.47
2022-10-13T15:37:34.727Z,101164.13
2022-10-13T15:39:36.597Z,101157.44
2022-10-13T15:41:38.043Z,101160.44
2022-10-13T15:43:39.499Z,101158.25
2022-10-13T15:45:41.387Z,101162.13
2022-10-13T15:47:42.827Z,101165.22
2022-10-13T15:49:44.313Z,101158.75
2022-10-13T15:51:47.468Z,101170.84
2022-10-13T15:53:48.937Z,101164.16
2022-10-13T15:55:50.592Z,101166.75
2022-10-13T15:57:52.188Z,101160.31
2022-10-13T15:59:53.726Z,101167.28
2022-10-13T16:01:55.287Z,101160.09
2022-10-13T16:03:57.102Z,101158.03
2022-10-13T16:06:02.246Z,101160.91
2022-10-13T16:08:05.201Z,101155.94
2022-10-13T16:10:07.641Z,101162.06
2022-10-13T16:12:09.098Z,101158.03
2022-10-13T16:14:10.645Z,101164.56
2022-10-13T16:16:12.286Z,101168.03
2022-10-13T16:18:13.727Z,101160.00
2022-10-13T16:20:15.175Z,101164.41
2022-10-13T16:22:16.720Z,101168.03
2022-10-13T16:24:19.593Z,101159.53
2022-10-13T16:26:21.263Z,101161.75
2022-10-13T16:28:22.830Z,101161.94
2022-10-13T16:30:24.590Z,101166.72
2022-10-13T16:32:26.167Z,101159.22
2022-10-13T16:34:27.927Z,101163.94
2022-10-13T16:36:29.413Z,101165.16
2022-10-13T16:38:31.053Z,101159.16
2022-10-13T16:40:33.895Z,101167.38
2022-10-13T16:42:35.377Z,101165.75
2022-10-13T16:44:36.979Z,101149.44
2022-10-13T16:46:38.802Z,101153.00
2022-10-13T16:48:41.522Z,101159.22
2022-10-13T16:50:42.987Z,101168.09
2022-10-13T16:52:44.717Z,101168.00
2022-10-13T16:54:46.476Z,101155.94
2022-10-13T16:56:49.307Z,101161.22
2022-10-13T16:58:55.848Z,101163.22
2022-10-13T17:01:02.944Z,101157.09
2022-10-13T17:03:05.009Z,101159.97
2022-10-13T17:05:06.843Z,101161.00
2022-10-13T17:07:08.341Z,101152.31
2022-10-13T17:09:10.669Z,101158.34
2022-10-13T17:11:16.854Z,101161.28
2022-10-13T17:13:19.658Z,101154.97
2022-10-13T17:15:21.125Z,101162.06
2022-10-13T17:17:23.022Z,101162.25
2022-10-13T17:19:24.760Z,101161.28
2022-10-13T17:21:26.482Z,101157.28
2022-10-13T17:23:29.580Z,101159.00
2022-10-13T17:25:33.846Z,101159.56
2022-10-13T17:27:35.701Z,101154.56
2022-10-13T17:29:38.575Z,101154.19
2022-10-13T17:31:40.099Z,101154.75
2022-10-13T17:33:42.749Z,101151.69
2022-10-13T17:35:44.397Z,101142.84
2022-10-13T17:37:49.146Z,101150.88
2022-10-13T17:39:50.815Z,101158.19
2022-10-13T17:41:52.436Z,101146.22
2022-10-13T17:43:53.913Z,101151.56
2022-10-13T17:46:31.105Z,101159.94
2022-10-13T17:48:28.635Z,101164.50
2022-10-13T17:50:30.097Z,101161.03
2022-10-13T17:52:31.553Z,101156.72
2022-10-13T17:54:33.037Z,101157.75
2022-10-13T17:56:34.499Z,101147.25
2022-10-13T17:58:36.810Z,101148.47
2022-10-13T18:01:00.633Z,101145.09
2022-10-13T18:03:01.143Z,101152.44
2022-10-13T18:05:02.979Z,101148.31
2022-10-13T18:07:04.474Z,101151.16
2022-10-13T18:09:07.456Z,101151.59
2022-10-13T18:11:11.127Z,101152.72
2022-10-13T18:13:12.695Z,101143.22
2022-10-13T18:15:14.417Z,101149.84
2022-10-13T18:17:15.945Z,101151.31
2022-10-13T18:19:19.188Z,101153.81
2022-10-13T18:21:22.620Z,101147.59
2022-10-13T18:23:24.048Z,101148.63
2022-10-13T18:25:25.503Z,101138.03
2022-10-13T18:27:26.974Z,101143.47
2022-10-13T18:29:28.656Z,101138.97
2022-10-13T18:31:32.080Z,101151.72
2022-10-13T18:33:33.627Z,101137.50
2022-10-13T18:35:36.461Z,101136.03
2022-10-13T18:37:38.215Z,101133.44
2022-10-13T18:39:39.681Z,101137.06
2022-10-13T18:41:41.875Z,101131.13
2022-10-13T18:43:43.426Z,101141.81
2022-10-13T18:45:44.883Z,101132.94
2022-10-13T18:47:50.434Z,101136.00
2022-10-13T18:49:51.926Z,101133.78
2022-10-13T18:51:54.732Z,101136.34
2022-10-13T18:53:56.793Z,101132.97
2022-10-13T18:56:03.261Z,101132.72
2022-10-13T18:58:04.754Z,101134.63
2022-10-13T19:00:07.353Z,101128.50
2022-10-13T19:02:09.421Z,101131.34
2022-10-13T19:04:11.299Z,101131.25
2022-10-13T19:06:14.490Z,101131.19
2022-10-13T19:08:17.375Z,101126.94
2022-10-13T19:10:18.994Z,101122.75
2022-10-13T19:12:20.545Z,101125.16
2022-10-13T19:14:22.040Z,101136.63
2022-10-13T19:16:24.977Z,101133.97
2022-10-13T19:18:26.657Z,101125.50
2022-10-13T19:20:28.209Z,101126.28
2022-10-13T19:22:29.665Z,101127.84
2022-10-13T19:24:32.556Z,101119.06
2022-10-13T19:26:35.688Z,101120.59
2022-10-13T19:28:37.400Z,101121.56
2022-10-13T19:30:39.386Z,101118.09
2022-10-13T19:32:41.106Z,101117.94
2022-10-13T19:34:42.591Z,101123.63
2022-10-13T19:36:45.641Z,101120.00
2022-10-13T19:38:47.190Z,101124.97
2022-10-13T19:40:50.182Z,101123.34
2022-10-13T19:42:51.576Z,101119.09
2022-10-13T19:44:52.890Z,101118.59
2022-10-13T19:46:54.612Z,101110.97
2022-10-13T19:48:56.054Z,101114.34
2022-10-13T19:51:00.269Z,101118.22
2022-10-13T19:53:01.766Z,101110.97
2022-10-13T19:55:03.881Z,101119.28
2022-10-13T19:57:06.806Z,101119.53
2022-10-13T19:59:08.323Z,101119.28
2022-10-13T20:01:09.885Z,101119.13
2022-10-13T20:03:12.357Z,101127.91
2022-10-13T20:05:13.826Z,101125.41
2022-10-13T20:07:15.128Z,101130.50
2022-10-13T20:09:17.463Z,101126.19
2022-10-13T20:11:23.790Z,101121.72
2022-10-13T20:13:27.193Z,101121.34
2022-10-13T20:15:28.619Z,101123.22
2022-10-13T20:17:29.964Z,101121.63
2022-10-13T20:19:31.482Z,101130.50
2022-10-13T20:21:32.989Z,101126.97
2022-10-13T20:23:35.051Z,101123.69
2022-10-13T20:25:36.993Z,101118.19
2022-10-13T20:27:38.442Z,101122.72
2022-10-13T20:29:41.073Z,101120.38
2022-10-13T20:31:44.916Z,101119.16
2022-10-13T20:33:47.184Z,101124.72
2022-10-13T20:35:48.791Z,101122.75
2022-10-13T20:37:50.513Z,101122.44
2022-10-13T20:39:53.926Z,101114.69
2022-10-13T20:41:55.385Z,101117.59
2022-10-13T20:43:59.493Z,101111.63
2022-10-13T20:46:04.970Z,101110.59
2022-10-13T20:48:06.479Z,101115.16
2022-10-13T20:50:08.502Z,101114.75
2022-10-13T20:52:10.214Z,101113.13
2022-10-13T20:54:13.689Z,101117.50
2022-10-13T20:56:17.932Z,101108.78
2022-10-13T20:58:19.422Z,101114.19
2022-10-13T21:00:21.067Z,101117.84
2022-10-13T21:02:23.859Z,101114.47
2022-10-13T21:04:25.353Z,101120.69
2022-10-13T21:06:26.940Z,101113.47
2022-10-13T21:08:29.034Z,101118.00
2022-10-13T21:10:30.807Z,101120.97
2022-10-13T21:12:32.340Z,101115.66
2022-10-13T21:14:33.839Z,101114.22
2022-10-13T21:16:36.272Z,101123.78
2022-10-13T21:18:39.287Z,101122.72
2022-10-13T21:20:40.760Z,101120.41
2022-10-13T21:22:43.979Z,101119.41
2022-10-13T21:24:45.422Z,101117.69
2022-10-13T21:26:46.693Z,101123.31
2022-10-13T21:28:48.538Z,101110.22
2022-10-13T21:30:59.380Z,101122.75
2022-10-13T21:33:00.927Z,101121.09
2022-10-13T21:35:04.315Z,101116.56
2022-10-13T21:37:05.771Z,101115.81
2022-10-13T21:39:07.085Z,101121.13
2022-10-13T21:41:10.395Z,101122.31
2022-10-13T21:43:11.868Z,101118.28
2022-10-13T21:45:13.402Z,101122.19
2022-10-13T21:47:14.919Z,101113.34
2022-10-13T21:49:16.411Z,101119.19
2022-10-13T21:51:20.801Z,101114.66
2022-10-13T21:53:22.309Z,101119.19
2022-10-13T21:55:24.043Z,101118.97
2022-10-13T21:57:25.600Z,101110.25
2022-10-13T21:59:27.241Z,101124.66
2022-10-13T22:01:29.020Z,101123.22
2022-10-13T22:03:30.870Z,101120.50
2022-10-13T22:05:32.379Z,101118.19
2022-10-13T22:07:35.197Z,101123.53
2022-10-13T22:09:36.869Z,101125.41
2022-10-13T22:11:39.205Z,101117.63
2022-10-13T22:13:41.076Z,101117.56
2022-10-13T22:15:42.585Z,101122.00
2022-10-13T22:17:44.097Z,101129.41
2022-10-13T22:19:45.597Z,101115.03
2022-10-13T22:21:48.957Z,101110.69
2022-10-13T22:23:51.915Z,101124.00
2022-10-13T22:25:53.384Z,101117.00
2022-10-13T22:27:54.680Z,101117.16
2022-10-13T22:29:56.155Z,101124.06
2022-10-13T22:31:57.586Z,101121.56
2022-10-13T22:33:59.905Z,101117.00
2022-10-13T22:36:06.354Z,101112.63
2022-10-13T22:38:07.857Z,101115.44
2022-10-13T22:40:11.746Z,101111.44
2022-10-13T22:42:13.327Z,101119.91
2022-10-13T22:44:16.814Z,101109.56
2022-10-13T22:46:20.198Z,101110.56
2022-10-13T22:48:21.807Z,101110.50
2022-10-13T22:50:23.245Z,101097.75
2022-10-13T22:52:24.566Z,101109.31
2022-10-13T22:54:26.318Z,101113.56
2022-10-13T22:56:31.222Z,101107.31
2022-10-13T22:58:32.713Z,101114.56
2022-10-13T23:00:34.597Z,101102.50
2022-10-13T23:02:36.289Z,101099.28
2022-10-13T23:04:38.095Z,101105.63
2022-10-13T23:06:39.673Z,101104.03
2022-10-13T23:08:43.644Z,101100.28
2022-10-13T23:10:45.049Z,101098.34
2022-10-13T23:12:47.699Z,101103.88
2022-10-13T23:14:49.125Z,101095.91
2022-10-13T23:16:50.449Z,101093.09
2022-10-13T23:18:52.455Z,101098.72
2022-10-13T23:20:56.892Z,101093.66
2022-10-13T23:22:58.587Z,101087.69
2022-10-13T23:24:59.912Z,101103.66
2022-10-13T23:27:01.440Z,101112.56
2022-10-13T23:29:04.951Z,101102.88
2022-10-13T23:31:10.216Z,101101.00
2022-10-13T23:33:11.708Z,101099.28
2022-10-13T23:35:13.382Z,101099.41